M/T Vemaoil Xi — 9HWD7 — position and weather

sailwx.info

Track history (hours):
 
Tides and Currents Weather Stations Pressure Air Temp Water Temp Dewpoint Dewpoint Depression Visibility Wind Speed Wind Dir Waves Ship Positions

M/T Vemaoil Xi

Last reported at 2015-May-27 21:26 UTC. Time now 2015-May-27 23:53 UTC.
Position N 35°49' E 014°33'.

Length 105 m; draft 6.6 m.

Type: Tanker. MMSI: 215631000.

Date/timePositionNaut miles runAvg speedWind from/ knotsBaromVisibWave heightAir tempDewpointWater temp
2015-May-27 21:26N 35°49' E 014°33'1 0.3
2015-May-27 17:29N 35°49' E 014°35'0 0.0
2015-May-26 17:15N 35°49' E 014°35'0 0.3
2015-May-26 16:32N 35°49' E 014°35'0 0.0
2015-May-26 15:27N 35°49' E 014°35'0 0.0
2015-May-26 14:30N 35°49' E 014°35'0 0.0
2015-May-26 13:24N 35°49' E 014°35'0 0.0
2015-May-26 11:17N 35°49' E 014°35'0 0.0
2015-May-26 09:18N 35°49' E 014°35'2 0.2
2015-May-26 01:03N 35°49' E 014°33'0 0.5
2015-May-26 00:25N 35°49' E 014°33'2 2.0
2015-May-25 23:24N 35°49' E 014°35'0 0.0
2015-May-25 22:28N 35°49' E 014°35'0 0.0
2015-May-25 21:33N 35°49' E 014°35'0 0.0
2015-May-25 20:31N 35°49' E 014°35'0 0.0
2015-May-25 19:32N 35°49' E 014°35'0 0.0
2015-May-25 18:33N 35°49' E 014°35'0 0.0
2015-May-25 17:33N 35°49' E 014°35'0 0.0
2015-May-25 16:28N 35°49' E 014°35'2 2.4
2015-May-25 15:32N 35°49' E 014°38'7 6.6
2015-May-25 14:31N 35°53' E 014°45'2 2.3
2015-May-25 13:33N 35°54' E 014°47'0 0.0
2015-May-25 12:33N 35°54' E 014°47'0 0.0
2015-May-25 11:32N 35°54' E 014°48'0 0.3
2015-May-25 10:23N 35°54' E 014°47'5 5.6
2015-May-25 09:33N 35°51' E 014°42'6 0.4
2015-May-24 19:08N 35°49' E 014°35'2 0.2
2015-May-24 09:26N 35°49' E 014°33'2 0.2
2015-May-23 23:22N 35°49' E 014°36'0 0.0
2015-May-23 16:17N 35°49' E 014°36'0 0.2
2015-May-23 15:23N 35°49' E 014°36'0 0.0
2015-May-23 14:20N 35°49' E 014°36'0 0.0
2015-May-23 13:32N 35°49' E 014°36'0 0.0
2015-May-21 20:32N 35°49' E 014°36'6 6.2
2015-May-21 19:31N 35°52' E 014°43'2 1.5
2015-May-21 18:28N 35°52' E 014°45'0 0.0
2015-May-21 17:31N 35°52' E 014°45'0 0.1
2015-May-21 16:23N 35°52' E 014°45'5 5.5
2015-May-21 15:32N 35°50' E 014°40'4 3.0
2015-May-21 14:11N 35°49' E 014°35'0 0.0
2015-May-21 10:26N 35°49' E 014°35'0 0.0
2015-May-21 09:32N 35°49' E 014°35'0 0.2
2015-May-21 08:32N 35°49' E 014°35'6 6.1
2015-May-21 07:33N 35°51' E 014°42'3 2.5
2015-May-21 06:31N 35°52' E 014°45'0 0.0
2015-May-21 05:31N 35°52' E 014°45'0 0.0
2015-May-21 04:16N 35°52' E 014°45'0 0.1
2015-May-21 03:31N 35°53' E 014°45'0 0.1
2015-May-21 02:31N 35°53' E 014°45'0 0.1
2015-May-21 01:31N 35°53' E 014°45'0 0.0
2015-May-21 00:31N 35°53' E 014°45'0 0.0
2015-May-20 23:31N 35°53' E 014°45'0 0.0
2015-May-20 22:31N 35°53' E 014°45'0 0.0
2015-May-20 21:31N 35°53' E 014°45'0 0.0
2015-May-20 20:31N 35°53' E 014°45'0 0.1
2015-May-20 19:31N 35°53' E 014°45'3 2.9
2015-May-20 18:33N 35°51' E 014°42'6 5.3
2015-May-20 17:31N 35°50' E 014°35'0 0.0
2015-May-20 16:31N 35°50' E 014°35'0 0.0
2015-May-20 15:28N 35°50' E 014°35'0 0.0
2015-May-20 14:32N 35°50' E 014°35'1 1.3
2015-May-20 13:33N 35°49' E 014°34'1 0.3
2015-May-20 09:30N 35°49' E 014°33'0 0.0
2015-May-20 08:27N 35°49' E 014°33'0 0.0
2015-May-20 07:27N 35°49' E 014°33'0 0.0
2015-May-20 05:18N 35°49' E 014°33'2 2.9
2015-May-20 04:33N 35°49' E 014°35'0 0.1
2015-May-20 03:33N 35°50' E 014°35'0 0.1
2015-May-20 02:33N 35°49' E 014°35'0 0.0
2015-May-20 01:33N 35°49' E 014°35'0 0.0
2015-May-20 00:33N 35°49' E 014°35'0 0.0
2015-May-19 23:33N 35°49' E 014°35'0 0.0
2015-May-19 22:33N 35°49' E 014°35'1 0.5
2015-May-19 21:26N 35°49' E 014°36'0 0.0
2015-May-19 20:32N 35°49' E 014°36'0 0.0
2015-May-19 18:32N 35°49' E 014°36'0 0.0
2015-May-19 15:05N 35°49' E 014°36'0 0.0
2015-May-19 13:23N 35°49' E 014°36'0 0.0
2015-May-19 12:14N 35°49' E 014°36'0 0.0
2015-May-19 11:08N 35°49' E 014°36'0 0.0
2015-May-19 10:23N 35°49' E 014°36'1 0.7
2015-May-19 09:12N 35°49' E 014°35'0 0.1
2015-May-19 08:33N 35°49' E 014°35'0 0.1
2015-May-19 07:18N 35°49' E 014°35'0 0.0
2015-May-19 06:18N 35°49' E 014°35'0 0.1
2015-May-19 05:27N 35°49' E 014°35'0 0.0
2015-May-19 03:27N 35°49' E 014°35'0 0.0
2015-May-18 22:30N 35°49' E 014°35'0 0.0
2015-May-18 15:09N 35°49' E 014°35'3 3.8
2015-May-18 14:15N 35°50' E 014°39'5 7.0
2015-May-18 13:32N 35°52' E 014°45'1 0.4
2015-May-18 10:10N 35°52' E 014°46'0 0.0
2015-May-18 09:29N 35°52' E 014°46'0 0.0
2015-May-18 08:30N 35°52' E 014°46'0 0.1
2015-May-18 07:26N 35°52' E 014°46'1 1.4
2015-May-18 06:31N 35°51' E 014°45'7 6.7
2015-May-18 05:29N 35°50' E 014°37'2 1.8
2015-May-18 04:33N 35°49' E 014°35'0 0.0
2015-May-18 03:19N 35°49' E 014°35'0 0.0
2015-May-18 02:19N 35°49' E 014°35'0 0.0
2015-May-17 23:24N 35°49' E 014°35'  
Track history (hours):
 
Tides and Currents Weather Stations Pressure Air Temp Water Temp Dewpoint Dewpoint Depression Visibility Wind Speed Wind Dir Waves Ship Positions

M/T Vemaoil Xi

Last reported at 2015-May-27 21:26 UTC. Time now 2015-May-27 23:53 UTC.
Position N 35°49' E 014°33'.

Length 105 m; draft 6.6 m.

Type: Tanker. MMSI: 215631000.

Date/timePositionNaut miles runAvg speedWind from/ knotsBaromVisibWave heightAir tempDewpointWater temp
2015-May-27 21:26N 35°49' E 014°33'1 0.3
2015-May-27 17:29N 35°49' E 014°35'0 0.0
2015-May-26 17:15N 35°49' E 014°35'0 0.3
2015-May-26 16:32N 35°49' E 014°35'0 0.0
2015-May-26 15:27N 35°49' E 014°35'0 0.0
2015-May-26 14:30N 35°49' E 014°35'0 0.0
2015-May-26 13:24N 35°49' E 014°35'0 0.0
2015-May-26 11:17N 35°49' E 014°35'0 0.0
2015-May-26 09:18N 35°49' E 014°35'2 0.2
2015-May-26 01:03N 35°49' E 014°33'0 0.5
2015-May-26 00:25N 35°49' E 014°33'2 2.0
2015-May-25 23:24N 35°49' E 014°35'0 0.0
2015-May-25 22:28N 35°49' E 014°35'0 0.0
2015-May-25 21:33N 35°49' E 014°35'0 0.0
2015-May-25 20:31N 35°49' E 014°35'0 0.0
2015-May-25 19:32N 35°49' E 014°35'0 0.0
2015-May-25 18:33N 35°49' E 014°35'0 0.0
2015-May-25 17:33N 35°49' E 014°35'0 0.0
2015-May-25 16:28N 35°49' E 014°35'2 2.4
2015-May-25 15:32N 35°49' E 014°38'7 6.6
2015-May-25 14:31N 35°53' E 014°45'2 2.3
2015-May-25 13:33N 35°54' E 014°47'0 0.0
2015-May-25 12:33N 35°54' E 014°47'0 0.0
2015-May-25 11:32N 35°54' E 014°48'0 0.3
2015-May-25 10:23N 35°54' E 014°47'5 5.6
2015-May-25 09:33N 35°51' E 014°42'6 0.4
2015-May-24 19:08N 35°49' E 014°35'2 0.2
2015-May-24 09:26N 35°49' E 014°33'2 0.2
2015-May-23 23:22N 35°49' E 014°36'0 0.0
2015-May-23 16:17N 35°49' E 014°36'0 0.2
2015-May-23 15:23N 35°49' E 014°36'0 0.0
2015-May-23 14:20N 35°49' E 014°36'0 0.0
2015-May-23 13:32N 35°49' E 014°36'0 0.0
2015-May-21 20:32N 35°49' E 014°36'6 6.2
2015-May-21 19:31N 35°52' E 014°43'2 1.5
2015-May-21 18:28N 35°52' E 014°45'0 0.0
2015-May-21 17:31N 35°52' E 014°45'0 0.1
2015-May-21 16:23N 35°52' E 014°45'5 5.5
2015-May-21 15:32N 35°50' E 014°40'4 3.0
2015-May-21 14:11N 35°49' E 014°35'0 0.0
2015-May-21 10:26N 35°49' E 014°35'0 0.0
2015-May-21 09:32N 35°49' E 014°35'0 0.2
2015-May-21 08:32N 35°49' E 014°35'6 6.1
2015-May-21 07:33N 35°51' E 014°42'3 2.5
2015-May-21 06:31N 35°52' E 014°45'0 0.0
2015-May-21 05:31N 35°52' E 014°45'0 0.0
2015-May-21 04:16N 35°52' E 014°45'0 0.1
2015-May-21 03:31N 35°53' E 014°45'0 0.1
2015-May-21 02:31N 35°53' E 014°45'0 0.1
2015-May-21 01:31N 35°53' E 014°45'0 0.0
2015-May-21 00:31N 35°53' E 014°45'0 0.0
2015-May-20 23:31N 35°53' E 014°45'0 0.0
2015-May-20 22:31N 35°53' E 014°45'0 0.0
2015-May-20 21:31N 35°53' E 014°45'0 0.0
2015-May-20 20:31N 35°53' E 014°45'0 0.1
2015-May-20 19:31N 35°53' E 014°45'3 2.9
2015-May-20 18:33N 35°51' E 014°42'6 5.3
2015-May-20 17:31N 35°50' E 014°35'0 0.0
2015-May-20 16:31N 35°50' E 014°35'0 0.0
2015-May-20 15:28N 35°50' E 014°35'0 0.0
2015-May-20 14:32N 35°50' E 014°35'1 1.3
2015-May-20 13:33N 35°49' E 014°34'1 0.3
2015-May-20 09:30N 35°49' E 014°33'0 0.0
2015-May-20 08:27N 35°49' E 014°33'0 0.0
2015-May-20 07:27N 35°49' E 014°33'0 0.0
2015-May-20 05:18N 35°49' E 014°33'2 2.9
2015-May-20 04:33N 35°49' E 014°35'0 0.1
2015-May-20 03:33N 35°50' E 014°35'0 0.1
2015-May-20 02:33N 35°49' E 014°35'0 0.0
2015-May-20 01:33N 35°49' E 014°35'0 0.0
2015-May-20 00:33N 35°49' E 014°35'0 0.0
2015-May-19 23:33N 35°49' E 014°35'0 0.0
2015-May-19 22:33N 35°49' E 014°35'1 0.5
2015-May-19 21:26N 35°49' E 014°36'0 0.0
2015-May-19 20:32N 35°49' E 014°36'0 0.0
2015-May-19 18:32N 35°49' E 014°36'0 0.0
2015-May-19 15:05N 35°49' E 014°36'0 0.0
2015-May-19 13:23N 35°49' E 014°36'0 0.0
2015-May-19 12:14N 35°49' E 014°36'0 0.0
2015-May-19 11:08N 35°49' E 014°36'0 0.0
2015-May-19 10:23N 35°49' E 014°36'1 0.7
2015-May-19 09:12N 35°49' E 014°35'0 0.1
2015-May-19 08:33N 35°49' E 014°35'0 0.1
2015-May-19 07:18N 35°49' E 014°35'0 0.0
2015-May-19 06:18N 35°49' E 014°35'0 0.1
2015-May-19 05:27N 35°49' E 014°35'0 0.0
2015-May-19 03:27N 35°49' E 014°35'0 0.0
2015-May-18 22:30N 35°49' E 014°35'0 0.0
2015-May-18 15:09N 35°49' E 014°35'3 3.8
2015-May-18 14:15N 35°50' E 014°39'5 7.0
2015-May-18 13:32N 35°52' E 014°45'1 0.4
2015-May-18 10:10N 35°52' E 014°46'0 0.0
2015-May-18 09:29N 35°52' E 014°46'0 0.0
2015-May-18 08:30N 35°52' E 014°46'0 0.1
2015-May-18 07:26N 35°52' E 014°46'1 1.4
2015-May-18 06:31N 35°51' E 014°45'7 6.7
2015-May-18 05:29N 35°50' E 014°37'2 1.8
2015-May-18 04:33N 35°49' E 014°35'0 0.0
2015-May-18 03:19N 35°49' E 014°35'0 0.0
2015-May-18 02:19N 35°49' E 014°35'0 0.0
2015-May-17 23:24N 35°49' E 014°35'  

Dump ship's entire track history